Posadas, Argentina

11:00 AM ART on August 21, 2014 (GMT -0300)
Liberador Gral D Jose De San M | Change Station
CLOSE
Current Station
Airport
Location: Posadas,
Elevation: 430 ft
Nearby Weather Stations

Elev 430 ft 27.39 °S, 55.97 °W | Updated 1 hour ago

Clear
Clear
73 °F
Feels Like 73 °F
N
8
Wind Variable Wind from ENE

Today
High -- | Low -- °F
--% Chance of Precip.
Yesterday
High -- | Low -- °F
Precip. -- in
7:08 AM 6:25 PM
Waning Crescent, 14% visible
Pressure 30.09 in
Visibility -9999.0 miles
Clouds
Dew Point 57 °F
Humidity 57%
Rainfall 0.00 in
Snow Depth Not available.
UV Not available.
Pollen Not available.
Air Quality Not available.
Flu Activity Not available.
METAR SARP 211300Z 07007KT CAVOK 23/14 Q1019

More Conditions Fewer Conditions

Pressure 30.09 in
Visibility -9999.0 miles
Clouds
Dew Point 57 °F
Humidity 57%
Rainfall 0.00 in
Snow Depth Not available.
UV Not available.
Pollen Not available.
Air Quality Not available.
Flu Activity Not available.
METAR SARP 211300Z 07007KT CAVOK 23/14 Q1019

More Conditions Fewer Conditions

10-Day Weather Forecast

Almanac

Astronomy

Aug. 21, 2014 Rise Set
Actual Time 7:08 AM ART 6:25 PM ART
Civil Twilight 6:44 AM ART 6:49 PM ART
Nautical Twilight 6:17 AM ART 7:16 PM ART
Astronomical Twilight 5:50 AM ART 7:44 PM ART
Moon 4:11 AM ART 3:16 PM ART
Length of Visible Light 12h 04m
Length of Day
11h 17m
Tomorrow will be 1m 26s longer.
Waning Crescent, 14% of the Moon is Illuminated
Today
Waning Crescent
Aug 25
New
Sep 2
First Quarter
Sep 8
Full
Sep 15
Last Quarter

Yesterday's Extremes

Country Highs Country Lows

Community

WunderPhotos

Upload Photos

1,745,925 photos uploaded!

WunderBlogs® & News

Nearby

Snow Depth

Not available.

Earthquake Activity

City Distance Mag. Time & Date
No recent earthquake activity has been reported nearby.
Minimum magnitude displayed is 2.5.

Coastal Water Temperatures

Place Temperature
No Stations Reporting

Nearby Weather Stations